sensor_id;sensor_type;location;lat;lon;timestamp;P1;durP1;ratioP1;P2;durP2;ratioP2
1775;SDS011;885;42.626;23.200;2023-03-03T00:01:26;8.97;;;8.13;;
1775;SDS011;885;42.626;23.200;2023-03-03T00:03:53;10.17;;;9.10;;
1775;SDS011;885;42.626;23.200;2023-03-03T00:06:20;9.20;;;8.07;;
1775;SDS011;885;42.626;23.200;2023-03-03T00:08:50;9.33;;;8.40;;
1775;SDS011;885;42.626;23.200;2023-03-03T00:11:17;11.97;;;9.80;;
1775;SDS011;885;42.626;23.200;2023-03-03T00:13:45;10.67;;;9.70;;
1775;SDS011;885;42.626;23.200;2023-03-03T00:16:15;11.80;;;10.00;;
1775;SDS011;885;42.626;23.200;2023-03-03T00:18:49;10.33;;;9.20;;
1775;SDS011;885;42.626;23.200;2023-03-03T00:21:24;8.97;;;8.07;;
1775;SDS011;885;42.626;23.200;2023-03-03T00:23:55;9.20;;;8.27;;
1775;SDS011;885;42.626;23.200;2023-03-03T00:26:37;9.30;;;8.30;;
1775;SDS011;885;42.626;23.200;2023-03-03T00:29:18;9.60;;;8.70;;
1775;SDS011;885;42.626;23.200;2023-03-03T00:31:52;12.47;;;9.00;;
1775;SDS011;885;42.626;23.200;2023-03-03T00:34:19;10.63;;;9.40;;
1775;SDS011;885;42.626;23.200;2023-03-03T00:36:51;10.57;;;9.47;;
1775;SDS011;885;42.626;23.200;2023-03-03T00:39:23;11.10;;;9.83;;
1775;SDS011;885;42.626;23.200;2023-03-03T00:41:54;11.10;;;9.90;;
1775;SDS011;885;42.626;23.200;2023-03-03T00:44:36;10.00;;;9.00;;
1775;SDS011;885;42.626;23.200;2023-03-03T00:47:12;10.10;;;8.50;;
1775;SDS011;885;42.626;23.200;2023-03-03T00:49:50;9.50;;;8.60;;
1775;SDS011;885;42.626;23.200;2023-03-03T00:52:18;9.53;;;8.63;;
1775;SDS011;885;42.626;23.200;2023-03-03T00:54:46;10.47;;;9.37;;
1775;SDS011;885;42.626;23.200;2023-03-03T00:57:13;10.13;;;9.13;;
1775;SDS011;885;42.626;23.200;2023-03-03T00:59:40;9.70;;;8.23;;
1775;SDS011;885;42.626;23.200;2023-03-03T01:02:06;11.47;;;9.67;;
1775;SDS011;885;42.626;23.200;2023-03-03T01:04:33;10.43;;;9.17;;
1775;SDS011;885;42.626;23.200;2023-03-03T01:07:00;9.10;;;8.00;;
1775;SDS011;885;42.626;23.200;2023-03-03T01:09:27;9.60;;;8.53;;
1775;SDS011;885;42.626;23.200;2023-03-03T01:11:55;10.50;;;9.50;;
1775;SDS011;885;42.626;23.200;2023-03-03T01:14:22;11.20;;;9.67;;
1775;SDS011;885;42.626;23.200;2023-03-03T01:16:49;12.50;;;11.20;;
1775;SDS011;885;42.626;23.200;2023-03-03T01:19:16;10.10;;;8.93;;
1775;SDS011;885;42.626;23.200;2023-03-03T01:21:42;14.37;;;11.10;;
1775;SDS011;885;42.626;23.200;2023-03-03T01:24:09;11.30;;;9.60;;
1775;SDS011;885;42.626;23.200;2023-03-03T01:26:36;12.83;;;10.17;;
1775;SDS011;885;42.626;23.200;2023-03-03T01:29:04;14.23;;;11.50;;
1775;SDS011;885;42.626;23.200;2023-03-03T01:31:31;10.57;;;9.47;;
1775;SDS011;885;42.626;23.200;2023-03-03T01:33:58;9.93;;;8.93;;
1775;SDS011;885;42.626;23.200;2023-03-03T01:36:24;12.90;;;9.70;;
1775;SDS011;885;42.626;23.200;2023-03-03T01:38:53;11.27;;;8.90;;
1775;SDS011;885;42.626;23.200;2023-03-03T01:41:20;16.30;;;9.60;;
1775;SDS011;885;42.626;23.200;2023-03-03T01:43:48;12.60;;;9.60;;
1775;SDS011;885;42.626;23.200;2023-03-03T01:46:27;14.50;;;11.20;;
1775;SDS011;885;42.626;23.200;2023-03-03T01:49:11;15.40;;;11.73;;
1775;SDS011;885;42.626;23.200;2023-03-03T01:51:43;13.33;;;11.80;;
1775;SDS011;885;42.626;23.200;2023-03-03T01:54:15;16.47;;;10.53;;
1775;SDS011;885;42.626;23.200;2023-03-03T01:56:47;12.17;;;9.93;;
1775;SDS011;885;42.626;23.200;2023-03-03T01:59:16;12.07;;;10.17;;
1775;SDS011;885;42.626;23.200;2023-03-03T02:01:47;16.87;;;10.17;;
1775;SDS011;885;42.626;23.200;2023-03-03T02:04:15;13.73;;;12.23;;
1775;SDS011;885;42.626;23.200;2023-03-03T02:06:44;15.30;;;10.80;;
1775;SDS011;885;42.626;23.200;2023-03-03T02:09:16;16.90;;;11.07;;
1775;SDS011;885;42.626;23.200;2023-03-03T02:11:51;10.30;;;9.13;;
1775;SDS011;885;42.626;23.200;2023-03-03T02:14:23;12.70;;;10.70;;
1775;SDS011;885;42.626;23.200;2023-03-03T02:16:52;12.40;;;10.33;;
1775;SDS011;885;42.626;23.200;2023-03-03T02:19:21;11.73;;;10.43;;
1775;SDS011;885;42.626;23.200;2023-03-03T02:21:53;13.70;;;10.43;;
1775;SDS011;885;42.626;23.200;2023-03-03T02:24:22;16.80;;;11.07;;
1775;SDS011;885;42.626;23.200;2023-03-03T02:26:54;14.13;;;11.17;;
1775;SDS011;885;42.626;23.200;2023-03-03T02:29:22;12.70;;;10.87;;
1775;SDS011;885;42.626;23.200;2023-03-03T02:31:49;11.70;;;10.40;;
1775;SDS011;885;42.626;23.200;2023-03-03T02:34:17;12.37;;;10.03;;
1775;SDS011;885;42.626;23.200;2023-03-03T02:36:48;15.30;;;12.07;;
1775;SDS011;885;42.626;23.200;2023-03-03T02:39:16;13.03;;;10.37;;
1775;SDS011;885;42.626;23.200;2023-03-03T02:41:45;11.60;;;9.67;;
1775;SDS011;885;42.626;23.200;2023-03-03T02:44:19;11.87;;;9.60;;
1775;SDS011;885;42.626;23.200;2023-03-03T02:46:49;12.90;;;9.80;;
1775;SDS011;885;42.626;23.200;2023-03-03T02:49:18;13.00;;;9.97;;
1775;SDS011;885;42.626;23.200;2023-03-03T02:51:46;13.73;;;10.33;;
1775;SDS011;885;42.626;23.200;2023-03-03T02:54:16;11.67;;;9.90;;
1775;SDS011;885;42.626;23.200;2023-03-03T02:56:45;13.90;;;10.20;;
1775;SDS011;885;42.626;23.200;2023-03-03T02:59:12;13.40;;;9.60;;
1775;SDS011;885;42.626;23.200;2023-03-03T03:01:43;12.20;;;8.80;;
1775;SDS011;885;42.626;23.200;2023-03-03T03:04:15;12.37;;;10.50;;
1775;SDS011;885;42.626;23.200;2023-03-03T03:06:44;12.23;;;10.00;;
1775;SDS011;885;42.626;23.200;2023-03-03T03:09:12;12.70;;;10.80;;
1775;SDS011;885;42.626;23.200;2023-03-03T03:11:41;22.33;;;16.13;;
1775;SDS011;885;42.626;23.200;2023-03-03T03:14:10;12.40;;;9.80;;
1775;SDS011;885;42.626;23.200;2023-03-03T03:16:38;11.93;;;9.80;;
1775;SDS011;885;42.626;23.200;2023-03-03T03:19:07;10.37;;;8.47;;
1775;SDS011;885;42.626;23.200;2023-03-03T03:21:35;9.97;;;8.97;;
1775;SDS011;885;42.626;23.200;2023-03-03T03:24:03;10.57;;;8.97;;
1775;SDS011;885;42.626;23.200;2023-03-03T03:26:31;11.23;;;8.83;;
1775;SDS011;885;42.626;23.200;2023-03-03T03:28:58;10.60;;;9.20;;
1775;SDS011;885;42.626;23.200;2023-03-03T03:31:25;9.90;;;8.90;;
1775;SDS011;885;42.626;23.200;2023-03-03T03:33:53;9.83;;;8.23;;
1775;SDS011;885;42.626;23.200;2023-03-03T03:36:22;9.53;;;8.10;;
1775;SDS011;885;42.626;23.200;2023-03-03T03:38:51;8.43;;;7.63;;
1775;SDS011;885;42.626;23.200;2023-03-03T03:41:18;7.60;;;6.90;;
1775;SDS011;885;42.626;23.200;2023-03-03T03:43:46;7.93;;;7.13;;
1775;SDS011;885;42.626;23.200;2023-03-03T03:46:13;8.00;;;7.20;;
1775;SDS011;885;42.626;23.200;2023-03-03T03:48:41;8.43;;;7.17;;
1775;SDS011;885;42.626;23.200;2023-03-03T03:51:08;9.17;;;8.27;;
1775;SDS011;885;42.626;23.200;2023-03-03T03:53:38;9.00;;;8.10;;
1775;SDS011;885;42.626;23.200;2023-03-03T03:56:06;8.17;;;7.40;;
1775;SDS011;885;42.626;23.200;2023-03-03T03:58:33;11.33;;;9.63;;
1775;SDS011;885;42.626;23.200;2023-03-03T04:01:01;17.80;;;15.40;;
1775;SDS011;885;42.626;23.200;2023-03-03T04:03:28;9.70;;;8.70;;
1775;SDS011;885;42.626;23.200;2023-03-03T04:05:55;10.70;;;9.23;;
1775;SDS011;885;42.626;23.200;2023-03-03T04:08:22;10.40;;;7.50;;
1775;SDS011;885;42.626;23.200;2023-03-03T04:10:50;8.00;;;6.97;;
1775;SDS011;885;42.626;23.200;2023-03-03T04:13:17;7.60;;;6.47;;
1775;SDS011;885;42.626;23.200;2023-03-03T04:15:43;7.27;;;6.43;;
1775;SDS011;885;42.626;23.200;2023-03-03T04:18:10;7.53;;;6.80;;
1775;SDS011;885;42.626;23.200;2023-03-03T04:20:38;14.70;;;11.77;;
1775;SDS011;885;42.626;23.200;2023-03-03T04:23:05;10.33;;;8.90;;
1775;SDS011;885;42.626;23.200;2023-03-03T04:25:32;12.57;;;10.00;;
1775;SDS011;885;42.626;23.200;2023-03-03T04:28:00;16.40;;;11.83;;
1775;SDS011;885;42.626;23.200;2023-03-03T04:30:26;11.70;;;9.47;;
1775;SDS011;885;42.626;23.200;2023-03-03T04:32:53;15.43;;;13.17;;
1775;SDS011;885;42.626;23.200;2023-03-03T04:35:20;12.20;;;9.70;;
1775;SDS011;885;42.626;23.200;2023-03-03T04:37:47;13.10;;;10.13;;
1775;SDS011;885;42.626;23.200;2023-03-03T04:40:13;12.90;;;11.57;;
1775;SDS011;885;42.626;23.200;2023-03-03T04:42:42;10.87;;;9.87;;
1775;SDS011;885;42.626;23.200;2023-03-03T04:45:10;12.53;;;11.03;;
1775;SDS011;885;42.626;23.200;2023-03-03T04:47:37;20.60;;;10.73;;
1775;SDS011;885;42.626;23.200;2023-03-03T04:50:04;13.73;;;11.40;;
1775;SDS011;885;42.626;23.200;2023-03-03T04:52:32;17.33;;;12.97;;
1775;SDS011;885;42.626;23.200;2023-03-03T04:54:59;14.50;;;12.43;;
1775;SDS011;885;42.626;23.200;2023-03-03T04:57:26;20.13;;;16.00;;
1775;SDS011;885;42.626;23.200;2023-03-03T04:59:52;20.00;;;15.17;;
1775;SDS011;885;42.626;23.200;2023-03-03T05:02:21;15.57;;;13.43;;
1775;SDS011;885;42.626;23.200;2023-03-03T05:04:47;12.87;;;11.43;;
1775;SDS011;885;42.626;23.200;2023-03-03T05:07:14;10.00;;;9.10;;
1775;SDS011;885;42.626;23.200;2023-03-03T05:09:41;11.60;;;9.83;;
1775;SDS011;885;42.626;23.200;2023-03-03T05:12:08;12.70;;;10.50;;
1775;SDS011;885;42.626;23.200;2023-03-03T05:14:35;13.70;;;10.90;;
1775;SDS011;885;42.626;23.200;2023-03-03T05:17:01;14.63;;;10.60;;
1775;SDS011;885;42.626;23.200;2023-03-03T05:19:31;11.70;;;9.53;;
1775;SDS011;885;42.626;23.200;2023-03-03T05:21:59;9.53;;;8.40;;
1775;SDS011;885;42.626;23.200;2023-03-03T05:24:26;10.53;;;9.43;;
1775;SDS011;885;42.626;23.200;2023-03-03T05:26:53;10.67;;;8.90;;
1775;SDS011;885;42.626;23.200;2023-03-03T05:29:20;13.60;;;10.80;;
1775;SDS011;885;42.626;23.200;2023-03-03T05:31:47;12.47;;;10.53;;
1775;SDS011;885;42.626;23.200;2023-03-03T05:34:14;18.67;;;11.60;;
1775;SDS011;885;42.626;23.200;2023-03-03T05:36:42;19.43;;;12.63;;
1775;SDS011;885;42.626;23.200;2023-03-03T05:39:08;17.10;;;11.67;;
1775;SDS011;885;42.626;23.200;2023-03-03T05:41:35;13.00;;;11.40;;
1775;SDS011;885;42.626;23.200;2023-03-03T05:44:03;12.50;;;9.87;;
1775;SDS011;885;42.626;23.200;2023-03-03T05:46:30;11.40;;;10.20;;
1775;SDS011;885;42.626;23.200;2023-03-03T05:48:57;11.90;;;10.27;;
1775;SDS011;885;42.626;23.200;2023-03-03T05:51:23;15.13;;;11.20;;
1775;SDS011;885;42.626;23.200;2023-03-03T05:53:52;14.03;;;12.00;;
1775;SDS011;885;42.626;23.200;2023-03-03T05:56:19;14.23;;;11.30;;
1775;SDS011;885;42.626;23.200;2023-03-03T05:58:45;11.80;;;9.97;;
1775;SDS011;885;42.626;23.200;2023-03-03T06:01:12;12.80;;;11.50;;
1775;SDS011;885;42.626;23.200;2023-03-03T06:03:39;13.87;;;12.47;;
1775;SDS011;885;42.626;23.200;2023-03-03T06:12:20;30.93;;;23.20;;
1775;SDS011;885;42.626;23.200;2023-03-03T06:14:47;33.10;;;24.30;;
1775;SDS011;885;42.626;23.200;2023-03-03T06:17:14;34.87;;;25.53;;
1775;SDS011;885;42.626;23.200;2023-03-03T06:19:41;23.70;;;16.90;;
1775;SDS011;885;42.626;23.200;2023-03-03T06:22:07;28.97;;;20.67;;
1775;SDS011;885;42.626;23.200;2023-03-03T06:24:35;30.20;;;22.10;;
1775;SDS011;885;42.626;23.200;2023-03-03T06:27:01;32.20;;;22.10;;
1775;SDS011;885;42.626;23.200;2023-03-03T06:29:30;32.63;;;24.07;;
1775;SDS011;885;42.626;23.200;2023-03-03T06:31:56;30.50;;;23.83;;
1775;SDS011;885;42.626;23.200;2023-03-03T06:34:23;19.40;;;16.47;;
1775;SDS011;885;42.626;23.200;2023-03-03T06:36:50;20.40;;;16.03;;
1775;SDS011;885;42.626;23.200;2023-03-03T06:39:17;16.27;;;13.47;;
1775;SDS011;885;42.626;23.200;2023-03-03T06:41:44;21.67;;;13.63;;
1775;SDS011;885;42.626;23.200;2023-03-03T06:44:10;21.13;;;13.57;;
1775;SDS011;885;42.626;23.200;2023-03-03T06:46:39;16.20;;;11.10;;
1775;SDS011;885;42.626;23.200;2023-03-03T06:49:05;13.97;;;11.53;;
1775;SDS011;885;42.626;23.200;2023-03-03T06:51:33;12.13;;;10.90;;
1775;SDS011;885;42.626;23.200;2023-03-03T06:54:05;13.10;;;11.00;;
1775;SDS011;885;42.626;23.200;2023-03-03T06:56:36;14.97;;;13.37;;
1775;SDS011;885;42.626;23.200;2023-03-03T06:59:05;20.00;;;16.73;;
1775;SDS011;885;42.626;23.200;2023-03-03T07:01:39;34.07;;;24.47;;
1775;SDS011;885;42.626;23.200;2023-03-03T07:04:11;33.23;;;22.87;;
1775;SDS011;885;42.626;23.200;2023-03-03T07:06:41;23.63;;;20.77;;
1775;SDS011;885;42.626;23.200;2023-03-03T07:09:09;25.60;;;21.30;;
1775;SDS011;885;42.626;23.200;2023-03-03T07:11:43;27.97;;;21.00;;
1775;SDS011;885;42.626;23.200;2023-03-03T07:14:11;28.33;;;21.30;;
1775;SDS011;885;42.626;23.200;2023-03-03T07:16:42;22.80;;;16.70;;
1775;SDS011;885;42.626;23.200;2023-03-03T07:19:13;19.93;;;17.07;;
1775;SDS011;885;42.626;23.200;2023-03-03T07:21:44;18.47;;;15.33;;
1775;SDS011;885;42.626;23.200;2023-03-03T07:24:15;23.47;;;16.67;;
1775;SDS011;885;42.626;23.200;2023-03-03T07:26:49;19.10;;;15.37;;
1775;SDS011;885;42.626;23.200;2023-03-03T07:29:18;20.87;;;16.73;;
1775;SDS011;885;42.626;23.200;2023-03-03T07:31:51;19.87;;;15.17;;
1775;SDS011;885;42.626;23.200;2023-03-03T07:34:19;21.50;;;16.50;;
1775;SDS011;885;42.626;23.200;2023-03-03T07:36:47;29.47;;;25.20;;
1775;SDS011;885;42.626;23.200;2023-03-03T07:39:23;27.93;;;23.70;;
1775;SDS011;885;42.626;23.200;2023-03-03T07:41:54;25.70;;;22.00;;
1775;SDS011;885;42.626;23.200;2023-03-03T07:44:29;31.57;;;25.07;;
1775;SDS011;885;42.626;23.200;2023-03-03T07:47:02;34.87;;;28.50;;
1775;SDS011;885;42.626;23.200;2023-03-03T07:49:43;33.27;;;26.87;;
1775;SDS011;885;42.626;23.200;2023-03-03T07:52:23;40.77;;;31.83;;
1775;SDS011;885;42.626;23.200;2023-03-03T07:54:52;47.30;;;41.47;;
1775;SDS011;885;42.626;23.200;2023-03-03T07:57:22;42.30;;;35.60;;
1775;SDS011;885;42.626;23.200;2023-03-03T07:59:52;42.23;;;30.00;;
1775;SDS011;885;42.626;23.200;2023-03-03T08:02:39;42.47;;;31.90;;
1775;SDS011;885;42.626;23.200;2023-03-03T08:05:29;34.93;;;28.60;;
1775;SDS011;885;42.626;23.200;2023-03-03T08:10:47;62.53;;;55.83;;
1775;SDS011;885;42.626;23.200;2023-03-03T08:13:16;44.17;;;39.53;;
1775;SDS011;885;42.626;23.200;2023-03-03T08:15:44;85.57;;;76.87;;
1775;SDS011;885;42.626;23.200;2023-03-03T08:18:20;77.37;;;69.27;;
1775;SDS011;885;42.626;23.200;2023-03-03T08:20:53;80.60;;;72.27;;
1775;SDS011;885;42.626;23.200;2023-03-03T08:23:21;71.20;;;63.90;;
1775;SDS011;885;42.626;23.200;2023-03-03T08:25:48;57.20;;;51.30;;
1775;SDS011;885;42.626;23.200;2023-03-03T08:28:16;51.57;;;46.17;;
1775;SDS011;885;42.626;23.200;2023-03-03T08:30:44;34.73;;;31.23;;
1775;SDS011;885;42.626;23.200;2023-03-03T08:33:11;24.60;;;22.03;;
1775;SDS011;885;42.626;23.200;2023-03-03T08:35:40;11.93;;;9.90;;
1775;SDS011;885;42.626;23.200;2023-03-03T08:38:07;14.17;;;11.67;;
1775;SDS011;885;42.626;23.200;2023-03-03T08:40:35;31.77;;;27.93;;
1775;SDS011;885;42.626;23.200;2023-03-03T08:43:02;29.23;;;26.10;;
1775;SDS011;885;42.626;23.200;2023-03-03T08:45:29;80.00;;;72.20;;
1775;SDS011;885;42.626;23.200;2023-03-03T08:47:56;29.30;;;26.23;;
1775;SDS011;885;42.626;23.200;2023-03-03T08:50:24;26.07;;;20.70;;
1775;SDS011;885;42.626;23.200;2023-03-03T08:52:55;28.40;;;24.00;;
1775;SDS011;885;42.626;23.200;2023-03-03T08:55:22;27.37;;;19.17;;
1775;SDS011;885;42.626;23.200;2023-03-03T08:57:49;24.37;;;19.97;;
1775;SDS011;885;42.626;23.200;2023-03-03T09:00:20;23.40;;;20.30;;
1775;SDS011;885;42.626;23.200;2023-03-03T09:02:48;19.97;;;15.97;;
1775;SDS011;885;42.626;23.200;2023-03-03T09:05:16;20.87;;;16.63;;
1775;SDS011;885;42.626;23.200;2023-03-03T09:07:44;19.10;;;15.47;;
1775;SDS011;885;42.626;23.200;2023-03-03T09:10:14;20.73;;;18.53;;
1775;SDS011;885;42.626;23.200;2023-03-03T09:12:44;25.67;;;20.73;;
1775;SDS011;885;42.626;23.200;2023-03-03T09:15:20;25.57;;;19.67;;
1775;SDS011;885;42.626;23.200;2023-03-03T09:17:49;17.30;;;15.00;;
1775;SDS011;885;42.626;23.200;2023-03-03T09:20:20;15.90;;;14.27;;
1775;SDS011;885;42.626;23.200;2023-03-03T09:22:49;17.03;;;15.23;;
1775;SDS011;885;42.626;23.200;2023-03-03T09:25:21;16.20;;;14.40;;
1775;SDS011;885;42.626;23.200;2023-03-03T09:27:52;18.73;;;14.30;;
1775;SDS011;885;42.626;23.200;2023-03-03T09:30:28;14.80;;;13.20;;
1775;SDS011;885;42.626;23.200;2023-03-03T09:33:01;16.57;;;15.07;;
1775;SDS011;885;42.626;23.200;2023-03-03T09:35:42;24.43;;;18.50;;
1775;SDS011;885;42.626;23.200;2023-03-03T09:38:16;18.77;;;15.87;;
1775;SDS011;885;42.626;23.200;2023-03-03T09:40:57;20.63;;;18.40;;
1775;SDS011;885;42.626;23.200;2023-03-03T09:43:39;21.27;;;18.60;;
1775;SDS011;885;42.626;23.200;2023-03-03T09:46:17;21.13;;;19.13;;
1775;SDS011;885;42.626;23.200;2023-03-03T09:48:56;25.40;;;21.10;;
1775;SDS011;885;42.626;23.200;2023-03-03T09:51:41;14.47;;;13.00;;
1775;SDS011;885;42.626;23.200;2023-03-03T09:54:29;17.30;;;15.20;;
1775;SDS011;885;42.626;23.200;2023-03-03T09:57:06;21.90;;;17.40;;
1775;SDS011;885;42.626;23.200;2023-03-03T09:59:43;19.17;;;17.07;;
1775;SDS011;885;42.626;23.200;2023-03-03T10:02:30;20.10;;;15.37;;
1775;SDS011;885;42.626;23.200;2023-03-03T10:05:19;36.87;;;24.50;;
1775;SDS011;885;42.626;23.200;2023-03-03T10:07:59;19.03;;;16.00;;
1775;SDS011;885;42.626;23.200;2023-03-03T10:10:46;24.33;;;16.17;;
1775;SDS011;885;42.626;23.200;2023-03-03T10:13:21;18.57;;;16.60;;
1775;SDS011;885;42.626;23.200;2023-03-03T10:16:06;18.37;;;15.90;;
1775;SDS011;885;42.626;23.200;2023-03-03T10:18:48;29.17;;;22.67;;
1775;SDS011;885;42.626;23.200;2023-03-03T10:21:24;22.50;;;19.43;;
1775;SDS011;885;42.626;23.200;2023-03-03T10:24:01;24.07;;;20.40;;
1775;SDS011;885;42.626;23.200;2023-03-03T10:26:44;16.07;;;14.50;;
1775;SDS011;885;42.626;23.200;2023-03-03T10:29:28;14.97;;;13.20;;
1775;SDS011;885;42.626;23.200;2023-03-03T10:32:06;15.40;;;13.80;;
1775;SDS011;885;42.626;23.200;2023-03-03T10:34:57;25.63;;;20.83;;
1775;SDS011;885;42.626;23.200;2023-03-03T10:37:45;16.03;;;14.33;;
1775;SDS011;885;42.626;23.200;2023-03-03T10:40:22;47.83;;;39.03;;
1775;SDS011;885;42.626;23.200;2023-03-03T10:43:04;24.30;;;18.63;;
1775;SDS011;885;42.626;23.200;2023-03-03T10:48:51;20.33;;;18.23;;
1775;SDS011;885;42.626;23.200;2023-03-03T10:51:40;23.20;;;19.23;;
1775;SDS011;885;42.626;23.200;2023-03-03T10:54:20;18.60;;;16.07;;
1775;SDS011;885;42.626;23.200;2023-03-03T10:56:58;87.00;;;42.53;;
1775;SDS011;885;42.626;23.200;2023-03-03T11:02:17;22.67;;;15.80;;
1775;SDS011;885;42.626;23.200;2023-03-03T11:07:43;17.30;;;15.40;;
1775;SDS011;885;42.626;23.200;2023-03-03T11:10:17;18.83;;;14.30;;
1775;SDS011;885;42.626;23.200;2023-03-03T11:12:54;20.10;;;15.00;;
1775;SDS011;885;42.626;23.200;2023-03-03T11:15:40;18.37;;;14.27;;
1775;SDS011;885;42.626;23.200;2023-03-03T11:18:17;16.03;;;14.10;;
1775;SDS011;885;42.626;23.200;2023-03-03T11:20:54;17.67;;;14.03;;
1775;SDS011;885;42.626;23.200;2023-03-03T11:23:32;20.93;;;14.60;;
1775;SDS011;885;42.626;23.200;2023-03-03T11:26:12;22.33;;;16.50;;
1775;SDS011;885;42.626;23.200;2023-03-03T11:28:56;22.10;;;14.27;;
1775;SDS011;885;42.626;23.200;2023-03-03T11:31:32;20.47;;;15.47;;
1775;SDS011;885;42.626;23.200;2023-03-03T11:34:09;38.70;;;26.00;;
1775;SDS011;885;42.626;23.200;2023-03-03T11:36:48;48.57;;;32.30;;
1775;SDS011;885;42.626;23.200;2023-03-03T11:39:21;18.50;;;15.50;;
1775;SDS011;885;42.626;23.200;2023-03-03T11:41:54;20.97;;;16.63;;
1775;SDS011;885;42.626;23.200;2023-03-03T11:44:29;21.40;;;17.00;;
1775;SDS011;885;42.626;23.200;2023-03-03T11:47:02;26.10;;;18.43;;
1775;SDS011;885;42.626;23.200;2023-03-03T11:49:32;27.97;;;19.90;;
1775;SDS011;885;42.626;23.200;2023-03-03T11:52:11;14.43;;;12.33;;
1775;SDS011;885;42.626;23.200;2023-03-03T11:54:48;17.80;;;14.90;;
1775;SDS011;885;42.626;23.200;2023-03-03T11:57:20;30.83;;;25.10;;
1775;SDS011;885;42.626;23.200;2023-03-03T11:59:54;27.40;;;20.40;;
1775;SDS011;885;42.626;23.200;2023-03-03T12:02:31;17.20;;;15.30;;
1775;SDS011;885;42.626;23.200;2023-03-03T12:05:10;14.33;;;12.60;;
1775;SDS011;885;42.626;23.200;2023-03-03T12:07:47;14.70;;;11.73;;
1775;SDS011;885;42.626;23.200;2023-03-03T12:10:21;17.83;;;13.43;;
1775;SDS011;885;42.626;23.200;2023-03-03T12:12:54;19.20;;;15.37;;
1775;SDS011;885;42.626;23.200;2023-03-03T12:15:30;17.30;;;14.13;;
1775;SDS011;885;42.626;23.200;2023-03-03T12:18:07;19.30;;;14.30;;
1775;SDS011;885;42.626;23.200;2023-03-03T12:20:48;19.70;;;14.30;;
1775;SDS011;885;42.626;23.200;2023-03-03T12:26:13;19.40;;;17.00;;
1775;SDS011;885;42.626;23.200;2023-03-03T12:28:47;20.87;;;18.67;;
1775;SDS011;885;42.626;23.200;2023-03-03T12:31:21;19.13;;;17.10;;
1775;SDS011;885;42.626;23.200;2023-03-03T12:33:56;15.17;;;13.13;;
1775;SDS011;885;42.626;23.200;2023-03-03T12:36:29;14.03;;;12.23;;
1775;SDS011;885;42.626;23.200;2023-03-03T12:39:16;19.53;;;13.30;;
1775;SDS011;885;42.626;23.200;2023-03-03T12:41:56;18.47;;;13.90;;
1775;SDS011;885;42.626;23.200;2023-03-03T12:44:32;16.40;;;12.90;;
1775;SDS011;885;42.626;23.200;2023-03-03T12:47:05;13.80;;;11.60;;
1775;SDS011;885;42.626;23.200;2023-03-03T12:49:44;12.83;;;11.53;;
1775;SDS011;885;42.626;23.200;2023-03-03T12:52:23;11.57;;;10.47;;
1775;SDS011;885;42.626;23.200;2023-03-03T12:55:02;13.00;;;10.80;;
1775;SDS011;885;42.626;23.200;2023-03-03T12:57:38;12.27;;;10.43;;
1775;SDS011;885;42.626;23.200;2023-03-03T13:00:18;14.73;;;11.27;;
1775;SDS011;885;42.626;23.200;2023-03-03T13:02:54;15.93;;;14.27;;
1775;SDS011;885;42.626;23.200;2023-03-03T13:05:26;18.27;;;13.10;;
1775;SDS011;885;42.626;23.200;2023-03-03T13:07:59;16.33;;;14.63;;
1775;SDS011;885;42.626;23.200;2023-03-03T13:10:57;12.23;;;11.10;;
1775;SDS011;885;42.626;23.200;2023-03-03T13:13:36;12.87;;;11.47;;
1775;SDS011;885;42.626;23.200;2023-03-03T13:16:11;14.17;;;12.77;;
1775;SDS011;885;42.626;23.200;2023-03-03T13:18:46;16.77;;;14.50;;
1775;SDS011;885;42.626;23.200;2023-03-03T13:21:20;16.23;;;12.40;;
1775;SDS011;885;42.626;23.200;2023-03-03T13:23:53;19.00;;;15.00;;
1775;SDS011;885;42.626;23.200;2023-03-03T13:26:30;12.73;;;11.03;;
1775;SDS011;885;42.626;23.200;2023-03-03T13:29:03;14.50;;;11.10;;
1775;SDS011;885;42.626;23.200;2023-03-03T13:31:40;11.87;;;10.27;;
1775;SDS011;885;42.626;23.200;2023-03-03T13:34:13;9.30;;;8.23;;
1775;SDS011;885;42.626;23.200;2023-03-03T13:36:51;10.17;;;8.87;;
1775;SDS011;885;42.626;23.200;2023-03-03T13:39:23;11.17;;;9.00;;
1775;SDS011;885;42.626;23.200;2023-03-03T13:41:56;10.60;;;8.87;;
1775;SDS011;885;42.626;23.200;2023-03-03T13:44:28;12.43;;;10.53;;
1775;SDS011;885;42.626;23.200;2023-03-03T13:47:02;10.80;;;9.70;;
1775;SDS011;885;42.626;23.200;2023-03-03T13:49:42;12.63;;;10.77;;
1775;SDS011;885;42.626;23.200;2023-03-03T13:52:21;11.87;;;10.67;;
1775;SDS011;885;42.626;23.200;2023-03-03T13:54:55;14.10;;;11.27;;
1775;SDS011;885;42.626;23.200;2023-03-03T13:57:46;21.77;;;15.63;;
1775;SDS011;885;42.626;23.200;2023-03-03T14:00:21;14.60;;;12.60;;
1775;SDS011;885;42.626;23.200;2023-03-03T14:03:03;12.60;;;10.27;;
1775;SDS011;885;42.626;23.200;2023-03-03T14:05:48;16.33;;;11.37;;
1775;SDS011;885;42.626;23.200;2023-03-03T14:08:18;15.20;;;13.37;;
1775;SDS011;885;42.626;23.200;2023-03-03T14:11:01;71.40;;;39.60;;
1775;SDS011;885;42.626;23.200;2023-03-03T14:13:36;34.83;;;24.67;;
1775;SDS011;885;42.626;23.200;2023-03-03T14:16:10;111.00;;;58.20;;
1775;SDS011;885;42.626;23.200;2023-03-03T14:18:44;102.97;;;49.37;;
1775;SDS011;885;42.626;23.200;2023-03-03T14:21:21;99.93;;;49.00;;
1775;SDS011;885;42.626;23.200;2023-03-03T14:23:54;78.30;;;39.30;;
1775;SDS011;885;42.626;23.200;2023-03-03T14:26:28;15.10;;;11.60;;
1775;SDS011;885;42.626;23.200;2023-03-03T14:29:11;8.13;;;6.30;;
1775;SDS011;885;42.626;23.200;2023-03-03T14:31:44;8.10;;;6.10;;
1775;SDS011;885;42.626;23.200;2023-03-03T14:34:25;7.83;;;7.03;;
1775;SDS011;885;42.626;23.200;2023-03-03T14:37:07;6.83;;;5.83;;
1775;SDS011;885;42.626;23.200;2023-03-03T14:39:47;7.50;;;6.80;;
1775;SDS011;885;42.626;23.200;2023-03-03T14:42:29;8.30;;;6.70;;
1775;SDS011;885;42.626;23.200;2023-03-03T14:44:59;8.57;;;7.23;;
1775;SDS011;885;42.626;23.200;2023-03-03T14:47:28;7.43;;;6.20;;
1775;SDS011;885;42.626;23.200;2023-03-03T14:49:56;7.47;;;6.73;;
1775;SDS011;885;42.626;23.200;2023-03-03T14:52:25;7.47;;;6.77;;
1775;SDS011;885;42.626;23.200;2023-03-03T14:54:53;12.57;;;9.27;;
1775;SDS011;885;42.626;23.200;2023-03-03T14:57:21;11.97;;;8.30;;
1775;SDS011;885;42.626;23.200;2023-03-03T15:00:26;26.60;;;23.70;;
1775;SDS011;885;42.626;23.200;2023-03-03T15:03:00;17.00;;;15.30;;
1775;SDS011;885;42.626;23.200;2023-03-03T15:05:30;15.33;;;12.70;;
1775;SDS011;885;42.626;23.200;2023-03-03T15:08:08;27.73;;;25.17;;
1775;SDS011;885;42.626;23.200;2023-03-03T15:10:36;8.30;;;7.33;;
1775;SDS011;885;42.626;23.200;2023-03-03T15:16:02;10.80;;;6.97;;
1775;SDS011;885;42.626;23.200;2023-03-03T15:18:34;11.37;;;8.73;;
1775;SDS011;885;42.626;23.200;2023-03-03T15:21:24;11.20;;;10.03;;
1775;SDS011;885;42.626;23.200;2023-03-03T15:23:57;12.20;;;10.50;;
1775;SDS011;885;42.626;23.200;2023-03-03T15:26:29;9.30;;;8.27;;
1775;SDS011;885;42.626;23.200;2023-03-03T15:29:06;15.57;;;10.90;;
1775;SDS011;885;42.626;23.200;2023-03-03T15:31:43;15.77;;;12.80;;
1775;SDS011;885;42.626;23.200;2023-03-03T15:34:22;11.60;;;9.50;;
1775;SDS011;885;42.626;23.200;2023-03-03T15:36:58;13.30;;;9.83;;
1775;SDS011;885;42.626;23.200;2023-03-03T15:39:32;12.17;;;9.63;;
1775;SDS011;885;42.626;23.200;2023-03-03T15:42:08;10.90;;;9.77;;
1775;SDS011;885;42.626;23.200;2023-03-03T15:44:44;10.37;;;9.27;;
1775;SDS011;885;42.626;23.200;2023-03-03T15:47:23;17.00;;;12.80;;